Valle Di Andalusia — IBTJ — position and weather

sailwx.info

Track history (hours):
 
Tides and Currents Weather Stations Pressure Air Temp Water Temp Dewpoint Dewpoint Depression Visibility Wind Speed Wind Dir Waves Ship Positions

Valle Di Andalusia

Last reported at 2014-Jul-23 10:06 UTC. Time now 2014-Jul-23 15:36 UTC.
Position N 39°05' E 009°02'.

Length 176 m; draft 7.5 m.

Type: Tanker. MMSI: 247046200.

Date/timePositionNaut miles runAvg speedWind from/ knotsBaromVisibWave heightAir tempDewpointWater temp
2014-Jul-23 10:06N 39°05' E 009°02'0 0.0
2014-Jul-23 09:33N 39°05' E 009°02'0 0.0
2014-Jul-23 08:33N 39°05' E 009°02'0 0.0
2014-Jul-23 07:33N 39°05' E 009°02'0 0.0
2014-Jul-23 06:33N 39°05' E 009°02'0 0.0
2014-Jul-23 05:33N 39°05' E 009°02'0 0.0
2014-Jul-23 04:33N 39°05' E 009°02'0 0.0
2014-Jul-23 03:33N 39°05' E 009°02'0 0.0
2014-Jul-23 02:33N 39°05' E 009°02'0 0.0
2014-Jul-23 01:33N 39°05' E 009°02'0 0.0
2014-Jul-23 00:33N 39°05' E 009°02'0 0.0
2014-Jul-22 23:33N 39°05' E 009°02'0 0.0
2014-Jul-22 22:33N 39°05' E 009°02'0 0.0
2014-Jul-22 21:33N 39°05' E 009°02'0 0.0
2014-Jul-22 20:33N 39°05' E 009°02'0 0.0
2014-Jul-22 19:33N 39°05' E 009°02'0 0.0
2014-Jul-22 18:33N 39°05' E 009°02'0 0.0
2014-Jul-22 17:34N 39°05' E 009°02'0 0.0
2014-Jul-22 16:33N 39°05' E 009°02'0 0.0
2014-Jul-22 15:33N 39°05' E 009°02'0 0.0
2014-Jul-22 14:33N 39°05' E 009°02'0 0.0
2014-Jul-22 13:33N 39°05' E 009°02'0 0.0
2014-Jul-22 12:33N 39°05' E 009°02'0 0.0
2014-Jul-22 11:34N 39°05' E 009°02'0 0.0
2014-Jul-22 10:33N 39°05' E 009°02'0 0.0
2014-Jul-22 09:33N 39°05' E 009°02'18 5.8
2014-Jul-22 06:33N 38°56' E 009°22'22411.8
2014-Jul-21 11:33N 37°06' E 013°30'1414.3
2014-Jul-21 10:33N 36°59' E 013°46'1414.2
2014-Jul-21 09:34N 36°52' E 014°01'1413.9
2014-Jul-21 08:33N 36°45' E 014°15'1413.7
2014-Jul-21 07:33N 36°40' E 014°31'1413.6
2014-Jul-21 06:34N 36°34' E 014°47'  
2014-Jul-15 13:15N 36°34' E 015°05'913.5
2014-Jul-15 12:33N 36°34' E 014°54'1414.4
2014-Jul-15 11:33N 36°38' E 014°36'1414.1
2014-Jul-15 10:33N 36°44' E 014°21'1413.8
2014-Jul-15 09:34N 36°50' E 014°05'1413.6
2014-Jul-15 08:33N 36°57' E 013°50'24014.1
2014-Jul-14 15:31N 38°55' E 009°25'1313.9
2014-Jul-14 14:33N 39°02' E 009°11'7 7.1
2014-Jul-14 13:32N 39°05' E 009°02'0 0.0
2014-Jul-14 12:33N 39°05' E 009°02'0 0.0
2014-Jul-14 11:33N 39°05' E 009°02'0 0.0
2014-Jul-14 10:33N 39°05' E 009°02'0 0.0
2014-Jul-14 09:33N 39°05' E 009°02'0 0.0
2014-Jul-14 08:33N 39°05' E 009°02'0 0.0
2014-Jul-14 07:32N 39°05' E 009°02'0 0.0
2014-Jul-14 06:32N 39°05' E 009°02'0 0.0
2014-Jul-14 05:32N 39°05' E 009°02'0 0.0
2014-Jul-14 04:33N 39°05' E 009°02'0 0.0
2014-Jul-14 03:33N 39°05' E 009°02'0 0.0
2014-Jul-14 02:33N 39°05' E 009°02'0 0.0
2014-Jul-14 01:33N 39°05' E 009°02'0 0.0
2014-Jul-14 00:32N 39°05' E 009°02'0 0.0
2014-Jul-13 23:33N 39°05' E 009°02'0 0.0
2014-Jul-13 22:33N 39°05' E 009°02'0 0.0
2014-Jul-13 21:32N 39°05' E 009°02'0 0.0
2014-Jul-13 20:33N 39°05' E 009°02'0 0.0
2014-Jul-13 19:33N 39°05' E 009°02'0 0.0
2014-Jul-13 18:33N 39°05' E 009°02'0 0.0
2014-Jul-13 17:33N 39°05' E 009°02'0 0.0
2014-Jul-13 16:33N 39°05' E 009°02'0 0.0
2014-Jul-13 15:33N 39°05' E 009°02'0 0.0
2014-Jul-13 14:33N 39°05' E 009°02'0 0.0
2014-Jul-13 13:33N 39°05' E 009°02'0 0.0
2014-Jul-13 12:33N 39°05' E 009°02'0 0.0
2014-Jul-13 11:33N 39°05' E 009°02'2 1.9
2014-Jul-13 10:32N 39°04' E 009°04'  
Track history (hours):
 
Tides and Currents Weather Stations Pressure Air Temp Water Temp Dewpoint Dewpoint Depression Visibility Wind Speed Wind Dir Waves Ship Positions

Valle Di Andalusia

Last reported at 2014-Jul-23 10:06 UTC. Time now 2014-Jul-23 15:36 UTC.
Position N 39°05' E 009°02'.

Length 176 m; draft 7.5 m.

Type: Tanker. MMSI: 247046200.

Date/timePositionNaut miles runAvg speedWind from/ knotsBaromVisibWave heightAir tempDewpointWater temp
2014-Jul-23 10:06N 39°05' E 009°02'0 0.0
2014-Jul-23 09:33N 39°05' E 009°02'0 0.0
2014-Jul-23 08:33N 39°05' E 009°02'0 0.0
2014-Jul-23 07:33N 39°05' E 009°02'0 0.0
2014-Jul-23 06:33N 39°05' E 009°02'0 0.0
2014-Jul-23 05:33N 39°05' E 009°02'0 0.0
2014-Jul-23 04:33N 39°05' E 009°02'0 0.0
2014-Jul-23 03:33N 39°05' E 009°02'0 0.0
2014-Jul-23 02:33N 39°05' E 009°02'0 0.0
2014-Jul-23 01:33N 39°05' E 009°02'0 0.0
2014-Jul-23 00:33N 39°05' E 009°02'0 0.0
2014-Jul-22 23:33N 39°05' E 009°02'0 0.0
2014-Jul-22 22:33N 39°05' E 009°02'0 0.0
2014-Jul-22 21:33N 39°05' E 009°02'0 0.0
2014-Jul-22 20:33N 39°05' E 009°02'0 0.0
2014-Jul-22 19:33N 39°05' E 009°02'0 0.0
2014-Jul-22 18:33N 39°05' E 009°02'0 0.0
2014-Jul-22 17:34N 39°05' E 009°02'0 0.0
2014-Jul-22 16:33N 39°05' E 009°02'0 0.0
2014-Jul-22 15:33N 39°05' E 009°02'0 0.0
2014-Jul-22 14:33N 39°05' E 009°02'0 0.0
2014-Jul-22 13:33N 39°05' E 009°02'0 0.0
2014-Jul-22 12:33N 39°05' E 009°02'0 0.0
2014-Jul-22 11:34N 39°05' E 009°02'0 0.0
2014-Jul-22 10:33N 39°05' E 009°02'0 0.0
2014-Jul-22 09:33N 39°05' E 009°02'18 5.8
2014-Jul-22 06:33N 38°56' E 009°22'22411.8
2014-Jul-21 11:33N 37°06' E 013°30'1414.3
2014-Jul-21 10:33N 36°59' E 013°46'1414.2
2014-Jul-21 09:34N 36°52' E 014°01'1413.9
2014-Jul-21 08:33N 36°45' E 014°15'1413.7
2014-Jul-21 07:33N 36°40' E 014°31'1413.6
2014-Jul-21 06:34N 36°34' E 014°47'  
2014-Jul-15 13:15N 36°34' E 015°05'913.5
2014-Jul-15 12:33N 36°34' E 014°54'1414.4
2014-Jul-15 11:33N 36°38' E 014°36'1414.1
2014-Jul-15 10:33N 36°44' E 014°21'1413.8
2014-Jul-15 09:34N 36°50' E 014°05'1413.6
2014-Jul-15 08:33N 36°57' E 013°50'24014.1
2014-Jul-14 15:31N 38°55' E 009°25'1313.9
2014-Jul-14 14:33N 39°02' E 009°11'7 7.1
2014-Jul-14 13:32N 39°05' E 009°02'0 0.0
2014-Jul-14 12:33N 39°05' E 009°02'0 0.0
2014-Jul-14 11:33N 39°05' E 009°02'0 0.0
2014-Jul-14 10:33N 39°05' E 009°02'0 0.0
2014-Jul-14 09:33N 39°05' E 009°02'0 0.0
2014-Jul-14 08:33N 39°05' E 009°02'0 0.0
2014-Jul-14 07:32N 39°05' E 009°02'0 0.0
2014-Jul-14 06:32N 39°05' E 009°02'0 0.0
2014-Jul-14 05:32N 39°05' E 009°02'0 0.0
2014-Jul-14 04:33N 39°05' E 009°02'0 0.0
2014-Jul-14 03:33N 39°05' E 009°02'0 0.0
2014-Jul-14 02:33N 39°05' E 009°02'0 0.0
2014-Jul-14 01:33N 39°05' E 009°02'0 0.0
2014-Jul-14 00:32N 39°05' E 009°02'0 0.0
2014-Jul-13 23:33N 39°05' E 009°02'0 0.0
2014-Jul-13 22:33N 39°05' E 009°02'0 0.0
2014-Jul-13 21:32N 39°05' E 009°02'0 0.0
2014-Jul-13 20:33N 39°05' E 009°02'0 0.0
2014-Jul-13 19:33N 39°05' E 009°02'0 0.0
2014-Jul-13 18:33N 39°05' E 009°02'0 0.0
2014-Jul-13 17:33N 39°05' E 009°02'0 0.0
2014-Jul-13 16:33N 39°05' E 009°02'0 0.0
2014-Jul-13 15:33N 39°05' E 009°02'0 0.0
2014-Jul-13 14:33N 39°05' E 009°02'0 0.0
2014-Jul-13 13:33N 39°05' E 009°02'0 0.0
2014-Jul-13 12:33N 39°05' E 009°02'0 0.0
2014-Jul-13 11:33N 39°05' E 009°02'2 1.9
2014-Jul-13 10:32N 39°04' E 009°04'  

Dump ship's entire track history